createdAt,value
2018-12-20T00:02:15.487Z,2.86
2018-12-20T00:05:20.112Z,2.92
2018-12-20T00:08:24.732Z,2.89
2018-12-20T00:11:29.623Z,2.83
2018-12-20T00:14:34.211Z,2.89
2018-12-20T00:17:43.991Z,2.91
2018-12-20T00:20:48.861Z,2.83
2018-12-20T00:23:53.640Z,2.87
2018-12-20T00:26:58.429Z,2.86
2018-12-20T00:30:03.320Z,2.93
2018-12-20T00:33:08.138Z,2.89
2018-12-20T00:36:12.936Z,2.84
2018-12-20T00:39:17.669Z,2.84
2018-12-20T00:42:22.416Z,2.82
2018-12-20T00:45:26.998Z,2.77
2018-12-20T00:48:31.697Z,2.89
2018-12-20T00:51:36.339Z,2.85
2018-12-20T00:54:41.109Z,2.89
2018-12-20T00:57:45.728Z,2.96
2018-12-20T01:00:50.210Z,2.93
2018-12-20T01:03:54.696Z,2.96
2018-12-20T01:06:59.230Z,2.86
2018-12-20T01:10:04.384Z,2.87
2018-12-20T01:13:09.061Z,2.89
2018-12-20T01:16:14.205Z,2.86
2018-12-20T01:19:18.893Z,2.93
2018-12-20T01:22:23.844Z,2.87
2018-12-20T01:25:28.534Z,2.82
2018-12-20T01:28:33.159Z,2.80
2018-12-20T01:31:38.899Z,2.82
2018-12-20T01:34:43.619Z,2.87
2018-12-20T01:37:48.255Z,2.86
2018-12-20T01:40:53.391Z,2.87
2018-12-20T01:43:57.971Z,2.87
2018-12-20T01:47:02.813Z,2.92
2018-12-20T01:50:08.550Z,2.87
2018-12-20T01:53:13.301Z,2.89
2018-12-20T01:56:18.144Z,2.90
2018-12-20T01:59:22.793Z,2.91
2018-12-20T02:02:27.413Z,2.86
2018-12-20T02:05:32.084Z,2.86
2018-12-20T02:08:38.066Z,2.92
2018-12-20T02:11:42.717Z,2.88
2018-12-20T02:14:47.478Z,2.98
2018-12-20T02:17:52.103Z,2.95
2018-12-20T02:20:56.707Z,2.92
2018-12-20T02:24:01.314Z,2.95
2018-12-20T02:27:06.037Z,2.94
2018-12-20T02:30:12.367Z,2.97
2018-12-20T02:33:17.158Z,2.97
2018-12-20T02:36:21.919Z,2.90
2018-12-20T02:39:26.693Z,2.89
2018-12-20T02:42:31.433Z,2.91
2018-12-20T02:45:35.993Z,2.82
2018-12-20T02:48:40.834Z,2.85
2018-12-20T02:51:45.592Z,2.90
2018-12-20T02:54:50.450Z,2.90
2018-12-20T02:57:55.143Z,2.89
2018-12-20T03:01:00.075Z,2.90
2018-12-20T03:04:04.939Z,2.88
2018-12-20T03:07:09.627Z,2.91
2018-12-20T03:10:14.379Z,2.83
2018-12-20T03:13:19.109Z,2.91
2018-12-20T03:16:23.688Z,2.86
2018-12-20T03:19:28.306Z,2.91
2018-12-20T03:22:32.772Z,2.84
2018-12-20T03:25:37.443Z,2.84
2018-12-20T03:28:42.137Z,2.85
2018-12-20T03:31:46.822Z,2.84
2018-12-20T03:34:51.463Z,2.88
2018-12-20T03:37:56.066Z,2.90
2018-12-20T03:41:00.729Z,2.84
2018-12-20T03:44:05.385Z,2.83
2018-12-20T03:47:10.079Z,2.88
2018-12-20T03:50:14.637Z,2.89
2018-12-20T03:53:19.403Z,2.95
2018-12-20T03:56:24.380Z,2.94
2018-12-20T03:59:29.031Z,2.93
2018-12-20T04:02:33.635Z,2.97
2018-12-20T04:05:38.237Z,2.98
2018-12-20T04:08:42.860Z,2.92
2018-12-20T04:11:47.464Z,2.90
2018-12-20T04:14:52.053Z,2.94
2018-12-20T04:17:56.566Z,2.97
2018-12-20T04:21:01.147Z,2.95
2018-12-20T04:24:05.866Z,2.91
2018-12-20T04:27:10.913Z,2.89
2018-12-20T04:30:15.684Z,2.93
2018-12-20T04:33:20.533Z,2.93
2018-12-20T04:36:25.203Z,2.93
2018-12-20T04:39:29.900Z,2.92
2018-12-20T04:42:34.493Z,2.99
2018-12-20T04:45:46.438Z,3.00
2018-12-20T04:48:45.668Z,2.96
2018-12-20T04:51:50.492Z,3.00
2018-12-20T04:54:55.257Z,3.00
2018-12-20T04:57:59.919Z,2.96
2018-12-20T05:01:05.011Z,3.01
2018-12-20T05:04:09.962Z,3.01
2018-12-20T05:07:14.760Z,3.04
2018-12-20T05:10:19.829Z,3.06
2018-12-20T05:13:24.659Z,3.03
2018-12-20T05:16:29.370Z,3.02
2018-12-20T05:19:33.995Z,2.98
2018-12-20T05:22:38.603Z,3.05
2018-12-20T05:25:43.265Z,3.11
2018-12-20T05:28:47.922Z,3.22
2018-12-20T05:31:52.574Z,3.08
2018-12-20T05:34:57.238Z,3.04
2018-12-20T05:38:01.864Z,3.00
2018-12-20T05:41:06.405Z,3.02
2018-12-20T05:44:11.027Z,3.02
2018-12-20T05:50:30.817Z,3.04
2018-12-20T05:53:35.378Z,3.05
2018-12-20T05:56:39.951Z,3.11
2018-12-20T05:59:44.728Z,3.13
2018-12-20T06:02:49.576Z,3.17
2018-12-20T06:05:54.454Z,3.16
2018-12-20T06:08:59.115Z,3.13
2018-12-20T06:12:03.726Z,3.16
2018-12-20T06:15:09.266Z,3.21
2018-12-20T06:18:13.941Z,3.14
2018-12-20T06:21:18.672Z,3.21
2018-12-20T06:24:23.500Z,3.19
2018-12-20T06:27:28.077Z,3.23
2018-12-20T06:30:32.609Z,3.19
2018-12-20T06:33:37.300Z,3.22
2018-12-20T06:36:41.914Z,3.23
2018-12-20T06:39:46.615Z,3.27
2018-12-20T06:42:51.173Z,3.28
2018-12-20T06:45:55.770Z,3.28
2018-12-20T06:49:00.307Z,3.31
2018-12-20T06:52:04.828Z,3.30
2018-12-20T06:55:09.504Z,3.32
2018-12-20T06:58:14.068Z,3.34
2018-12-20T07:01:18.704Z,3.30
2018-12-20T07:04:23.271Z,3.29
2018-12-20T07:07:27.832Z,3.26
2018-12-20T07:10:33.968Z,3.28
2018-12-20T07:13:38.452Z,3.35
2018-12-20T07:16:43.304Z,3.33
2018-12-20T07:19:47.786Z,3.35
2018-12-20T07:22:52.431Z,3.30
2018-12-20T07:25:57.022Z,3.43
2018-12-20T07:29:01.518Z,3.48
2018-12-20T07:32:06.140Z,3.47
2018-12-20T07:35:10.758Z,3.42
2018-12-20T07:38:15.284Z,3.47
2018-12-20T07:41:19.744Z,3.48
2018-12-20T07:44:24.220Z,3.44
2018-12-20T07:47:28.981Z,3.44
2018-12-20T07:50:33.512Z,3.49
2018-12-20T07:53:38.081Z,3.49
2018-12-20T07:56:42.571Z,3.55
2018-12-20T07:59:47.190Z,3.45
2018-12-20T08:02:51.729Z,3.50
2018-12-20T08:05:56.320Z,3.56
2018-12-20T08:09:01.055Z,3.72
2018-12-20T08:12:05.611Z,3.60
2018-12-20T08:15:10.245Z,3.61
2018-12-20T08:18:17.950Z,3.60
2018-12-20T08:21:22.520Z,3.68
2018-12-20T08:24:27.058Z,3.79
2018-12-20T08:27:31.611Z,3.93
2018-12-20T08:30:36.272Z,3.96
2018-12-20T08:33:40.955Z,3.87
2018-12-20T08:36:48.734Z,3.94
2018-12-20T08:39:53.332Z,4.26
2018-12-20T08:42:57.911Z,4.24
2018-12-20T08:46:02.442Z,4.21
2018-12-20T08:49:06.909Z,4.26
2018-12-20T08:52:11.462Z,4.02
2018-12-20T08:55:16.016Z,4.13
2018-12-20T08:58:20.730Z,4.26
2018-12-20T09:01:25.409Z,4.32
2018-12-20T09:04:29.979Z,4.26
2018-12-20T09:07:34.487Z,4.31
2018-12-20T09:10:39.072Z,4.59
2018-12-20T09:13:43.544Z,4.61
2018-12-20T09:16:48.286Z,4.51
2018-12-20T09:19:52.814Z,4.68
2018-12-20T09:22:57.600Z,4.74
2018-12-20T09:26:02.356Z,4.92
2018-12-20T09:29:06.830Z,4.97
2018-12-20T09:32:11.440Z,5.12
2018-12-20T09:35:16.065Z,5.12
2018-12-20T09:38:20.670Z,5.40
2018-12-20T09:41:25.227Z,5.51
2018-12-20T09:44:29.773Z,5.46
2018-12-20T09:47:40.092Z,5.38
2018-12-20T09:50:44.678Z,5.59
2018-12-20T09:53:49.428Z,5.76
2018-12-20T09:56:53.998Z,5.71
2018-12-20T09:59:58.689Z,5.66
2018-12-20T10:03:03.488Z,5.63
2018-12-20T10:06:08.215Z,5.83
2018-12-20T10:09:12.862Z,5.76
2018-12-20T10:12:17.389Z,6.06
2018-12-20T10:15:21.994Z,5.94
2018-12-20T10:18:26.791Z,5.85
2018-12-20T10:24:45.641Z,5.95
2018-12-20T10:27:50.198Z,5.95
2018-12-20T10:30:54.681Z,6.07
2018-12-20T10:33:59.288Z,6.01
2018-12-20T10:37:03.859Z,6.02
2018-12-20T10:40:08.635Z,6.04
2018-12-20T10:43:13.216Z,6.20
2018-12-20T10:46:17.683Z,6.36
2018-12-20T10:49:22.248Z,6.28
2018-12-20T10:52:26.833Z,6.51
2018-12-20T10:55:31.312Z,6.54
2018-12-20T10:58:35.832Z,6.60
2018-12-20T11:01:47.146Z,6.61
2018-12-20T11:04:57.056Z,6.12
2018-12-20T11:08:22.820Z,6.17
2018-12-20T11:11:31.706Z,6.21
2018-12-20T11:14:36.389Z,6.33
2018-12-20T11:17:40.987Z,6.57
2018-12-20T11:20:45.541Z,6.59
2018-12-20T11:23:50.256Z,6.67
2018-12-20T11:26:54.722Z,6.82
2018-12-20T11:29:59.464Z,6.89
2018-12-20T11:33:04.163Z,6.91
2018-12-20T11:36:08.869Z,6.91
2018-12-20T11:39:13.393Z,6.82
2018-12-20T11:42:17.883Z,6.83
2018-12-20T11:45:22.438Z,7.00
2018-12-20T11:48:26.921Z,7.01
2018-12-20T11:51:31.965Z,7.08
2018-12-20T11:54:37.282Z,7.02
2018-12-20T11:57:41.810Z,7.26
2018-12-20T12:00:46.306Z,7.27
2018-12-20T12:03:57.346Z,7.27
2018-12-20T12:06:57.517Z,7.50
2018-12-20T12:10:02.073Z,7.38
2018-12-20T12:13:06.752Z,7.47
2018-12-20T12:16:11.590Z,7.29
2018-12-20T12:19:16.242Z,7.41
2018-12-20T12:22:21.513Z,7.37
2018-12-20T12:25:26.188Z,7.43
2018-12-20T12:28:30.876Z,7.43
2018-12-20T12:31:35.632Z,7.24
2018-12-20T12:34:40.476Z,7.14
2018-12-20T12:37:45.049Z,7.22
2018-12-20T12:40:49.746Z,7.26
2018-12-20T12:43:54.481Z,7.30
2018-12-20T12:46:58.995Z,7.31
2018-12-20T12:50:03.863Z,7.30
2018-12-20T12:53:08.762Z,7.26
2018-12-20T12:56:13.295Z,7.34
2018-12-20T12:59:18.198Z,7.12
2018-12-20T13:02:22.926Z,7.10
2018-12-20T13:05:27.568Z,7.02
2018-12-20T13:08:32.089Z,6.94
2018-12-20T13:11:36.573Z,6.86
2018-12-20T13:14:41.918Z,6.85
2018-12-20T13:17:46.581Z,6.80
2018-12-20T13:20:51.118Z,6.79
2018-12-20T13:23:55.597Z,6.90
2018-12-20T13:27:00.963Z,6.98
2018-12-20T13:30:09.358Z,6.86
2018-12-20T13:33:14.002Z,6.72
2018-12-20T13:36:19.502Z,6.72
2018-12-20T13:39:24.052Z,6.73
2018-12-20T13:42:28.745Z,6.67
2018-12-20T13:45:33.347Z,6.71
2018-12-20T13:48:38.022Z,6.75
2018-12-20T13:51:42.520Z,6.71
2018-12-20T13:54:47.163Z,6.97
2018-12-20T13:57:51.743Z,6.99
2018-12-20T14:00:56.338Z,6.98
2018-12-20T14:04:00.869Z,6.92
2018-12-20T14:07:05.904Z,6.96
2018-12-20T14:10:10.797Z,6.94
2018-12-20T14:13:15.393Z,6.96
2018-12-20T14:16:19.918Z,6.92
2018-12-20T14:19:24.998Z,6.85
2018-12-20T14:22:29.717Z,6.83
2018-12-20T14:25:34.228Z,6.84
2018-12-20T14:28:39.644Z,6.81
2018-12-20T14:31:44.461Z,6.75
2018-12-20T14:34:49.180Z,6.76
2018-12-20T14:37:53.859Z,6.71
2018-12-20T14:40:58.447Z,6.62
2018-12-20T14:44:03.261Z,6.63
2018-12-20T14:47:08.484Z,6.55
2018-12-20T14:50:13.083Z,6.50
2018-12-20T14:53:19.385Z,6.48
2018-12-20T14:56:24.075Z,6.37
2018-12-20T14:59:28.588Z,6.34
2018-12-20T15:02:33.182Z,6.27
2018-12-20T15:05:37.749Z,6.31
2018-12-20T15:08:42.314Z,6.25
2018-12-20T15:11:46.795Z,6.29
2018-12-20T15:14:51.319Z,6.18
2018-12-20T15:17:55.775Z,6.39
2018-12-20T15:21:00.295Z,6.26
2018-12-20T15:24:04.977Z,6.30
2018-12-20T15:27:09.618Z,6.23
2018-12-20T15:30:14.224Z,6.16
2018-12-20T15:33:23.099Z,6.12
2018-12-20T15:36:27.673Z,6.14
2018-12-20T15:39:32.159Z,6.16
2018-12-20T15:42:36.774Z,6.09
2018-12-20T15:45:41.429Z,6.00
2018-12-20T15:48:45.880Z,5.99
2018-12-20T15:51:50.373Z,6.02
2018-12-20T15:54:54.809Z,5.90
2018-12-20T15:57:59.349Z,5.89
2018-12-20T16:01:03.993Z,5.84
2018-12-20T16:04:08.554Z,5.84
2018-12-20T16:07:13.258Z,5.96
2018-12-20T16:10:17.891Z,5.81
2018-12-20T16:13:22.445Z,5.78
2018-12-20T16:16:27.043Z,5.74
2018-12-20T16:19:31.645Z,5.74
2018-12-20T16:22:36.130Z,5.78
2018-12-20T16:25:40.892Z,5.76
2018-12-20T16:28:45.389Z,5.75
2018-12-20T16:31:49.930Z,5.96
2018-12-20T16:34:54.509Z,5.84
2018-12-20T16:37:59.121Z,5.79
2018-12-20T16:41:03.781Z,5.74
2018-12-20T16:44:08.592Z,5.79
2018-12-20T16:47:13.279Z,5.77
2018-12-20T16:50:17.920Z,5.90
2018-12-20T16:53:22.597Z,5.72
2018-12-20T16:56:27.138Z,5.73
2018-12-20T16:59:31.628Z,5.72
2018-12-20T17:02:36.298Z,5.81
2018-12-20T17:05:40.910Z,5.99
2018-12-20T17:08:48.408Z,6.08
2018-12-20T17:11:52.427Z,5.87
2018-12-20T17:14:57.055Z,5.93
2018-12-20T17:18:01.639Z,5.76
2018-12-20T17:21:06.296Z,5.75
2018-12-20T17:24:10.916Z,5.61
2018-12-20T17:27:15.428Z,5.65
2018-12-20T17:30:20.132Z,5.61
2018-12-20T17:33:24.991Z,5.60
2018-12-20T17:36:29.663Z,5.57
2018-12-20T17:39:34.277Z,5.48
2018-12-20T17:42:38.922Z,5.52
2018-12-20T17:45:43.567Z,5.71
2018-12-20T17:48:48.308Z,5.75
2018-12-20T17:51:52.944Z,5.67
2018-12-20T17:54:57.448Z,5.83
2018-12-20T17:58:02.053Z,5.93
2018-12-20T18:01:06.893Z,5.93
2018-12-20T18:04:11.474Z,5.86
2018-12-20T18:07:16.195Z,6.10
2018-12-20T18:10:20.969Z,6.14
2018-12-20T18:13:25.700Z,6.04
2018-12-20T18:16:30.429Z,6.07
2018-12-20T18:19:38.952Z,6.17
2018-12-20T18:22:41.677Z,6.20
2018-12-20T18:25:46.369Z,6.37
2018-12-20T18:28:50.955Z,6.29
2018-12-20T18:31:55.466Z,6.23
2018-12-20T18:35:00.066Z,6.19
2018-12-20T18:38:04.594Z,6.04
2018-12-20T18:41:09.199Z,5.95
2018-12-20T18:44:13.744Z,5.92
2018-12-20T18:47:18.291Z,5.92
2018-12-20T18:50:22.942Z,6.00
2018-12-20T18:53:27.557Z,6.27
2018-12-20T18:56:32.304Z,6.45
2018-12-20T18:59:36.918Z,6.42
2018-12-20T19:02:41.554Z,6.36
2018-12-20T19:05:46.146Z,6.50
2018-12-20T19:12:04.689Z,6.49
2018-12-20T19:15:10.447Z,6.40
2018-12-20T19:18:15.817Z,6.44
2018-12-20T19:21:20.574Z,6.25
2018-12-20T19:24:25.218Z,6.20
2018-12-20T19:27:29.832Z,6.31
2018-12-20T19:30:34.457Z,6.31
2018-12-20T19:33:39.119Z,6.28
2018-12-20T19:36:43.778Z,6.41
2018-12-20T19:43:08.793Z,6.64
2018-12-20T19:46:13.343Z,6.71
2018-12-20T19:49:17.838Z,6.63
2018-12-20T19:52:22.408Z,6.79
2018-12-20T19:55:26.925Z,6.88
2018-12-20T19:58:31.442Z,6.71
2018-12-20T20:01:35.889Z,6.65
2018-12-20T20:04:40.410Z,6.67
2018-12-20T20:07:45.021Z,6.65
2018-12-20T20:10:49.626Z,6.65
2018-12-20T20:13:54.086Z,6.75
2018-12-20T20:16:58.681Z,6.79
2018-12-20T20:20:03.948Z,6.66
2018-12-20T20:23:08.758Z,6.59
2018-12-20T20:26:13.314Z,6.69
2018-12-20T20:29:17.870Z,6.65
2018-12-20T20:32:22.523Z,6.56
2018-12-20T20:35:27.040Z,6.55
2018-12-20T20:38:31.602Z,6.57
2018-12-20T20:41:36.116Z,6.65
2018-12-20T20:44:40.724Z,6.64
2018-12-20T20:47:45.263Z,6.81
2018-12-20T20:50:50.072Z,6.63
2018-12-20T20:53:54.637Z,6.60
2018-12-20T20:56:59.147Z,6.44
2018-12-20T21:00:04.377Z,6.37
2018-12-20T21:03:09.020Z,6.62
2018-12-20T21:06:13.574Z,6.61
2018-12-20T21:09:18.320Z,6.47
2018-12-20T21:12:23.337Z,6.36
2018-12-20T21:15:28.155Z,6.45
2018-12-20T21:18:32.974Z,6.59
2018-12-20T21:21:37.674Z,6.73
2018-12-20T21:24:42.270Z,6.60
2018-12-20T21:27:46.819Z,6.50
2018-12-20T21:30:51.335Z,6.49
2018-12-20T21:33:55.991Z,6.36
2018-12-20T21:37:00.619Z,6.42
2018-12-20T21:40:06.177Z,6.52
2018-12-20T21:43:10.866Z,6.47
2018-12-20T21:46:15.615Z,6.39
2018-12-20T21:49:20.260Z,6.33
2018-12-20T21:52:24.911Z,6.39
2018-12-20T21:55:29.496Z,6.45
2018-12-20T21:58:34.157Z,6.37
2018-12-20T22:01:38.922Z,6.50
2018-12-20T22:04:43.666Z,6.51
2018-12-20T22:07:48.192Z,6.47
2018-12-20T22:10:52.745Z,6.42
2018-12-20T22:13:57.270Z,6.35
2018-12-20T22:17:01.867Z,6.34
2018-12-20T22:20:07.575Z,6.39
2018-12-20T22:23:12.135Z,6.36
2018-12-20T22:26:16.713Z,6.38
2018-12-20T22:29:21.923Z,6.47
2018-12-20T22:32:26.500Z,6.64
2018-12-20T22:35:30.976Z,6.83
2018-12-20T22:38:35.553Z,6.86
2018-12-20T22:41:40.137Z,6.93
2018-12-20T22:44:44.702Z,6.97
2018-12-20T22:47:49.458Z,6.87
2018-12-20T22:50:56.025Z,6.78
2018-12-20T22:54:00.894Z,6.90
2018-12-20T22:57:05.313Z,6.80
2018-12-20T23:00:12.312Z,6.86
2018-12-20T23:03:16.946Z,6.81
2018-12-20T23:06:21.504Z,6.75
2018-12-20T23:09:26.006Z,6.81
2018-12-20T23:12:30.637Z,6.99
2018-12-20T23:15:35.201Z,6.84
2018-12-20T23:18:39.815Z,6.89
2018-12-20T23:21:44.337Z,6.98
2018-12-20T23:24:48.858Z,6.99
2018-12-20T23:27:53.347Z,7.16
2018-12-20T23:30:57.949Z,6.99
2018-12-20T23:34:02.452Z,6.92
2018-12-20T23:37:07.212Z,6.82
2018-12-20T23:40:12.529Z,6.88
2018-12-20T23:43:17.075Z,7.04
2018-12-20T23:46:21.724Z,7.05
2018-12-20T23:49:26.330Z,7.15
2018-12-20T23:52:30.866Z,6.99
2018-12-20T23:55:35.471Z,6.97
2018-12-20T23:58:40.029Z,7.04
